createdAt,value
2022-09-04T00:00:35.602Z,2.00
2022-09-04T00:04:21.245Z,2.10
2022-09-04T00:07:44.628Z,2.33
2022-09-04T00:11:03.845Z,2.00
2022-09-04T00:14:17.675Z,1.85
2022-09-04T00:17:23.295Z,1.98
2022-09-04T00:20:50.618Z,1.63
2022-09-04T00:23:58.849Z,1.85
2022-09-04T00:27:17.799Z,2.20
2022-09-04T00:30:22.852Z,1.92
2022-09-04T00:33:35.806Z,1.90
2022-09-04T00:36:46.936Z,2.03
2022-09-04T00:40:00.147Z,2.10
2022-09-04T00:43:29.505Z,1.83
2022-09-04T00:46:37.486Z,1.80
2022-09-04T00:50:09.450Z,3.10
2022-09-04T00:53:37.434Z,1.85
2022-09-04T00:57:19.848Z,2.50
2022-09-04T01:00:22.817Z,2.00
2022-09-04T01:03:46.370Z,2.72
2022-09-04T01:07:14.695Z,2.08
2022-09-04T01:10:40.356Z,2.20
2022-09-04T01:14:00.733Z,2.20
2022-09-04T01:17:11.431Z,2.60
2022-09-04T01:20:34.157Z,2.20
2022-09-04T01:23:52.535Z,2.10
2022-09-04T01:27:08.057Z,1.90
2022-09-04T01:30:13.266Z,1.90
2022-09-04T01:33:50.443Z,2.30
2022-09-04T01:37:18.182Z,2.00
2022-09-04T01:40:35.676Z,1.98
2022-09-04T01:43:37.904Z,1.77
2022-09-04T01:46:54.693Z,1.95
2022-09-04T01:50:05.486Z,2.00
2022-09-04T01:53:14.629Z,2.22
2022-09-04T01:56:34.088Z,2.28
2022-09-04T01:59:57.076Z,2.20
2022-09-04T02:03:11.418Z,1.98
2022-09-04T02:06:33.529Z,2.63
2022-09-04T02:09:38.479Z,2.53
2022-09-04T02:12:58.383Z,2.58
2022-09-04T02:16:09.236Z,2.42
2022-09-04T02:19:50.366Z,2.20
2022-09-04T02:23:07.881Z,2.70
2022-09-04T02:26:20.398Z,2.20
2022-09-04T02:29:25.096Z,2.50
2022-09-04T02:32:29.692Z,2.63
2022-09-04T02:35:42.918Z,2.45
2022-09-04T02:39:03.112Z,2.50
2022-09-04T02:42:49.712Z,2.28
2022-09-04T02:46:28.982Z,2.40
2022-09-04T02:49:55.798Z,2.40
2022-09-04T02:53:10.298Z,2.40
2022-09-04T02:56:31.304Z,2.58
2022-09-04T02:59:59.119Z,2.75
2022-09-04T03:03:13.102Z,2.47
2022-09-04T03:06:23.869Z,3.00
2022-09-04T03:09:32.908Z,2.75
2022-09-04T03:13:01.004Z,2.90
2022-09-04T03:16:16.222Z,3.10
2022-09-04T03:19:19.025Z,2.92
2022-09-04T03:22:36.408Z,2.75
2022-09-04T03:25:53.498Z,2.83
2022-09-04T03:29:10.498Z,3.10
2022-09-04T03:32:31.610Z,2.95
2022-09-04T03:35:48.530Z,3.38
2022-09-04T03:39:04.485Z,3.45
2022-09-04T03:42:25.204Z,3.28
2022-09-04T03:45:36.276Z,3.35
2022-09-04T03:48:59.739Z,3.17
2022-09-04T03:52:07.510Z,3.03
2022-09-04T03:55:36.386Z,3.00
2022-09-04T03:58:44.124Z,2.67
2022-09-04T04:01:49.607Z,2.67
2022-09-04T04:05:15.478Z,3.00
2022-09-04T04:08:56.660Z,2.70
2022-09-04T04:12:13.133Z,2.58
2022-09-04T04:15:17.512Z,3.05
2022-09-04T04:18:40.528Z,3.10
2022-09-04T04:22:03.553Z,2.72
2022-09-04T04:25:25.199Z,2.42
2022-09-04T04:28:42.204Z,2.38
2022-09-04T04:32:13.794Z,2.70
2022-09-04T04:35:49.722Z,2.63
2022-09-04T04:39:30.305Z,2.30
2022-09-04T04:42:34.956Z,2.70
2022-09-04T04:46:24.592Z,3.03
2022-09-04T04:49:49.127Z,3.05
2022-09-04T04:53:09.455Z,3.20
2022-09-04T04:56:54.394Z,3.10
2022-09-04T05:00:12.295Z,3.10
2022-09-04T05:03:24.994Z,3.13
2022-09-04T05:06:38.090Z,3.38
2022-09-04T05:09:52.249Z,3.30
2022-09-04T05:13:33.379Z,3.20
2022-09-04T05:16:52.243Z,2.70
2022-09-04T05:20:21.708Z,3.25
2022-09-04T05:23:44.977Z,3.05
2022-09-04T05:27:03.007Z,3.00
2022-09-04T05:30:18.805Z,2.90
2022-09-04T05:33:33.911Z,3.20
2022-09-04T05:37:03.435Z,2.92
2022-09-04T05:40:39.301Z,2.72
2022-09-04T05:43:53.921Z,2.40
2022-09-04T05:46:58.363Z,3.15
2022-09-04T05:50:35.604Z,2.60
2022-09-04T05:53:52.445Z,2.40
2022-09-04T05:56:57.249Z,2.40
2022-09-04T06:00:14.628Z,2.55
2022-09-04T06:03:25.060Z,2.50
2022-09-04T06:06:38.461Z,2.92
2022-09-04T06:09:52.035Z,2.65
2022-09-04T06:13:25.931Z,2.40
2022-09-04T06:16:30.526Z,2.47
2022-09-04T06:19:43.074Z,2.78
2022-09-04T06:23:06.247Z,2.60
2022-09-04T06:26:08.001Z,2.28
2022-09-04T06:29:40.606Z,2.70
2022-09-04T06:32:51.403Z,3.67
2022-09-04T06:36:12.708Z,3.15
2022-09-04T06:39:52.063Z,3.55
2022-09-04T06:43:03.911Z,3.97
2022-09-04T06:46:16.199Z,3.83
2022-09-04T06:49:59.134Z,4.10
2022-09-04T06:53:39.299Z,4.18
2022-09-04T06:56:40.983Z,3.45
2022-09-04T06:59:54.789Z,3.25
2022-09-04T07:02:56.631Z,4.10
2022-09-04T07:06:25.364Z,3.65
2022-09-04T07:09:33.089Z,3.53
2022-09-04T07:12:40.470Z,3.33
2022-09-04T07:15:48.275Z,3.20
2022-09-04T07:19:15.010Z,2.90
2022-09-04T07:22:47.897Z,3.47
2022-09-04T07:26:03.472Z,3.60
2022-09-04T07:29:31.701Z,3.20
2022-09-04T07:32:51.047Z,2.95
2022-09-04T07:36:13.919Z,3.03
2022-09-04T07:39:39.775Z,2.60
2022-09-04T07:43:07.540Z,2.30
2022-09-04T07:46:47.040Z,2.20
2022-09-04T07:50:01.064Z,2.05
2022-09-04T07:53:04.213Z,2.33
2022-09-04T07:56:26.139Z,2.08
2022-09-04T07:59:46.045Z,2.60
2022-09-04T08:03:17.679Z,2.55
2022-09-04T08:06:53.307Z,2.20
2022-09-04T08:10:26.753Z,1.65
2022-09-04T08:13:49.741Z,1.65
2022-09-04T08:17:27.744Z,1.52
2022-09-04T08:20:42.254Z,1.50
2022-09-04T08:24:22.842Z,1.80
2022-09-04T08:27:44.291Z,1.92
2022-09-04T08:31:07.782Z,2.15
2022-09-04T08:34:34.385Z,1.73
2022-09-04T08:37:39.253Z,1.55
2022-09-04T08:41:08.871Z,1.90
2022-09-04T08:44:28.663Z,1.92
2022-09-04T08:47:53.506Z,1.92
2022-09-04T08:51:42.886Z,1.80
2022-09-04T08:55:07.431Z,1.88
2022-09-04T08:58:37.383Z,2.00
2022-09-04T09:02:04.176Z,2.00
2022-09-04T09:08:53.732Z,1.88
2022-09-04T09:12:20.628Z,2.20
2022-09-04T09:15:34.121Z,2.20
2022-09-04T09:19:02.672Z,2.00
2022-09-04T09:22:27.530Z,2.10
2022-09-04T09:25:52.416Z,1.80
2022-09-04T09:28:54.632Z,1.70
2022-09-04T09:32:18.631Z,1.83
2022-09-04T09:35:38.828Z,1.85
2022-09-04T09:39:19.236Z,1.98
2022-09-04T09:42:30.966Z,1.92
2022-09-04T09:46:06.231Z,1.65
2022-09-04T09:49:29.829Z,2.10
2022-09-04T09:53:00.761Z,1.70
2022-09-04T09:56:28.676Z,1.98
2022-09-04T09:59:39.539Z,1.73
2022-09-04T10:03:31.002Z,1.70
2022-09-04T10:07:10.720Z,1.70
2022-09-04T10:10:42.059Z,1.20
2022-09-04T10:14:02.725Z,1.50
2022-09-04T10:17:45.851Z,1.42
2022-09-04T10:21:12.411Z,1.60
2022-09-04T10:27:52.574Z,1.40
2022-09-04T10:31:18.666Z,1.30
2022-09-04T10:34:54.404Z,1.30
2022-09-04T10:38:27.620Z,1.33
2022-09-04T10:41:32.314Z,1.20
2022-09-04T10:44:55.985Z,1.13
2022-09-04T10:48:12.745Z,1.25
2022-09-04T10:51:45.864Z,1.20
2022-09-04T10:55:11.745Z,1.38
2022-09-04T10:58:39.657Z,1.20
2022-09-04T11:02:15.453Z,2.20
2022-09-04T11:05:41.367Z,1.75
2022-09-04T11:09:03.138Z,1.60
2022-09-04T11:12:40.008Z,1.60
2022-09-04T11:19:25.189Z,1.40
2022-09-04T11:22:34.912Z,1.52
2022-09-04T11:25:55.602Z,1.50
2022-09-04T11:29:15.720Z,1.50
2022-09-04T11:32:44.751Z,1.40
2022-09-04T11:36:23.326Z,1.40
2022-09-04T11:39:52.722Z,1.20
2022-09-04T11:43:03.609Z,1.40
2022-09-04T11:46:26.230Z,1.70
2022-09-04T11:49:59.103Z,1.42
2022-09-04T11:53:11.361Z,1.50
2022-09-04T11:56:28.156Z,1.67
2022-09-04T11:59:38.106Z,1.35
2022-09-04T12:03:06.273Z,1.27
2022-09-04T12:06:22.708Z,1.50
2022-09-04T12:10:01.881Z,1.20
2022-09-04T12:13:41.128Z,1.45
2022-09-04T12:16:50.997Z,1.20
2022-09-04T12:20:09.531Z,1.30
2022-09-04T12:23:11.256Z,1.38
2022-09-04T12:26:51.923Z,1.38
2022-09-04T12:30:19.233Z,1.17
2022-09-04T12:33:34.405Z,1.40
2022-09-04T12:36:59.304Z,1.47
2022-09-04T12:40:31.702Z,1.65
2022-09-04T12:44:08.819Z,1.50
2022-09-04T12:47:33.433Z,1.48
2022-09-04T12:50:53.711Z,1.33
2022-09-04T12:54:25.443Z,1.40
2022-09-04T12:57:37.192Z,1.50
2022-09-04T13:00:52.093Z,1.50
2022-09-04T13:04:27.520Z,1.45
2022-09-04T13:07:51.612Z,1.30
2022-09-04T13:11:00.916Z,1.10
2022-09-04T13:14:22.789Z,1.10
2022-09-04T13:17:33.730Z,1.02
2022-09-04T13:20:47.732Z,1.00
2022-09-04T13:24:09.071Z,1.30
2022-09-04T13:27:34.232Z,1.00
2022-09-04T13:30:48.594Z,1.20
2022-09-04T13:34:09.843Z,0.80
2022-09-04T13:37:24.705Z,1.10
2022-09-04T13:41:05.469Z,1.05
2022-09-04T13:44:29.685Z,1.17
2022-09-04T13:47:54.618Z,1.20
2022-09-04T13:51:01.697Z,1.20
2022-09-04T13:54:19.484Z,1.10
2022-09-04T13:57:27.922Z,1.40
2022-09-04T14:00:34.024Z,1.10
2022-09-04T14:03:45.857Z,1.17
2022-09-04T14:06:48.229Z,1.25
2022-09-04T14:09:54.712Z,1.30
2022-09-04T14:13:19.939Z,1.30
2022-09-04T14:16:24.021Z,1.33
2022-09-04T14:19:48.144Z,1.58
2022-09-04T14:22:52.967Z,1.30
2022-09-04T14:26:13.439Z,1.40
2022-09-04T14:29:22.196Z,1.75
2022-09-04T14:32:32.442Z,1.70
2022-09-04T14:35:46.856Z,1.60
2022-09-04T14:39:14.664Z,1.30
2022-09-04T14:42:31.552Z,1.35
2022-09-04T14:45:59.964Z,1.73
2022-09-04T14:49:07.170Z,1.52
2022-09-04T14:52:14.663Z,1.35
2022-09-04T14:55:24.122Z,1.40
2022-09-04T14:58:33.951Z,1.50
2022-09-04T15:01:54.416Z,1.30
2022-09-04T15:05:17.774Z,1.98
2022-09-04T15:08:29.508Z,1.63
2022-09-04T15:11:34.817Z,1.92
2022-09-04T15:14:38.847Z,1.60
2022-09-04T15:17:48.551Z,2.47
2022-09-04T15:21:04.243Z,1.52
2022-09-04T15:24:26.532Z,1.80
2022-09-04T15:27:34.973Z,1.48
2022-09-04T15:30:45.548Z,1.70
2022-09-04T15:33:48.591Z,1.70
2022-09-04T15:36:50.904Z,1.58
2022-09-04T15:40:21.123Z,1.58
2022-09-04T15:43:39.354Z,1.40
2022-09-04T15:46:50.157Z,1.52
2022-09-04T15:50:00.316Z,1.40
2022-09-04T15:53:26.361Z,1.50
2022-09-04T15:56:36.955Z,1.35
2022-09-04T15:59:59.391Z,1.42
2022-09-04T16:03:20.912Z,1.73
2022-09-04T16:06:31.695Z,1.80
2022-09-04T16:09:41.524Z,1.30
2022-09-04T16:12:59.752Z,1.42
2022-09-04T16:16:33.950Z,1.42
2022-09-04T16:19:46.839Z,1.70
2022-09-04T16:22:58.479Z,1.55
2022-09-04T16:26:12.407Z,1.73
2022-09-04T16:29:37.030Z,1.70
2022-09-04T16:32:42.484Z,1.55
2022-09-04T16:35:46.848Z,2.10
2022-09-04T16:38:59.861Z,1.60
2022-09-04T16:42:04.646Z,1.52
2022-09-04T16:45:17.391Z,1.60
2022-09-04T16:48:34.891Z,1.50
2022-09-04T16:51:47.736Z,1.50
2022-09-04T16:55:02.982Z,1.70
2022-09-04T16:58:10.548Z,1.70
2022-09-04T17:01:19.929Z,1.55
2022-09-04T17:04:28.173Z,1.50
2022-09-04T17:07:43.808Z,1.75
2022-09-04T17:10:51.281Z,1.75
2022-09-04T17:14:05.285Z,1.70
2022-09-04T17:17:30.970Z,1.83
2022-09-04T17:23:08.789Z,1.80
2022-09-04T17:28:59.051Z,1.50
2022-09-04T17:29:16.403Z,1.50
2022-09-04T17:31:53.302Z,1.70
2022-09-04T17:40:37.203Z,1.88
2022-09-04T17:40:54.280Z,1.70
2022-09-04T17:42:19.995Z,2.00
2022-09-04T17:45:34.283Z,1.60
2022-09-04T17:48:43.636Z,2.25
2022-09-04T17:51:58.270Z,2.55
2022-09-04T17:55:07.378Z,3.63
2022-09-04T17:58:21.710Z,2.80
2022-09-04T18:01:41.578Z,2.40
2022-09-04T18:04:56.434Z,2.30
2022-09-04T18:08:08.208Z,1.75
2022-09-04T18:11:28.991Z,1.90
2022-09-04T18:14:41.663Z,1.75
2022-09-04T18:17:43.323Z,1.80
2022-09-04T18:20:55.980Z,1.80
2022-09-04T18:24:11.878Z,1.63
2022-09-04T18:27:19.126Z,1.67
2022-09-04T18:35:37.587Z,1.83
2022-09-04T18:37:25.658Z,2.38
2022-09-04T18:37:49.312Z,1.70
2022-09-04T18:47:51.934Z,2.30
2022-09-04T18:50:20.738Z,2.20
2022-09-04T18:50:45.117Z,2.80
2022-09-04T18:51:35.017Z,2.63
2022-09-04T18:54:41.930Z,2.30
2022-09-04T18:57:52.036Z,2.30
2022-09-04T19:01:38.577Z,2.40
2022-09-04T19:05:25.020Z,2.37
2022-09-04T19:08:36.315Z,2.65
2022-09-04T19:11:48.388Z,2.25
2022-09-04T19:14:54.506Z,2.40
2022-09-04T19:18:08.305Z,2.65
2022-09-04T19:21:14.754Z,2.58
2022-09-04T19:24:34.161Z,2.30
2022-09-04T19:27:44.071Z,2.40
2022-09-04T19:31:18.157Z,2.33
2022-09-04T19:34:38.143Z,2.08
2022-09-04T19:42:02.929Z,2.28
2022-09-04T19:46:07.887Z,2.10
2022-09-04T19:46:08.644Z,2.20
2022-09-04T19:50:18.232Z,2.10
2022-09-04T19:53:31.359Z,2.80
2022-09-04T19:56:06.151Z,2.53
2022-09-04T19:59:20.068Z,2.60
2022-09-04T20:02:44.173Z,2.60
2022-09-04T20:06:30.077Z,2.55
2022-09-04T20:09:42.845Z,2.72
2022-09-04T20:12:51.128Z,2.60
2022-09-04T20:16:21.757Z,2.67
2022-09-04T20:19:29.061Z,2.90
2022-09-04T20:22:37.262Z,2.65
2022-09-04T20:25:54.118Z,2.50
2022-09-04T20:29:21.021Z,2.55
2022-09-04T20:32:44.728Z,2.97
2022-09-04T20:36:02.352Z,2.38
2022-09-04T20:39:12.031Z,2.53
2022-09-04T20:42:25.385Z,2.60
2022-09-04T20:49:06.772Z,2.55
2022-09-04T20:52:49.855Z,2.50
2022-09-04T20:53:04.838Z,2.55
2022-09-04T20:56:38.184Z,2.60
2022-09-04T21:03:07.689Z,2.47
2022-09-04T21:03:44.777Z,2.35
2022-09-04T21:07:07.682Z,2.53
2022-09-04T21:10:31.904Z,2.40
2022-09-04T21:13:43.830Z,2.47
2022-09-04T21:17:33.859Z,2.50
2022-09-04T21:20:59.943Z,2.70
2022-09-04T21:24:21.103Z,2.53
2022-09-04T21:27:25.716Z,2.40
2022-09-04T21:31:10.967Z,2.67
2022-09-04T21:34:43.706Z,2.70
2022-09-04T21:37:54.912Z,2.67
2022-09-04T21:41:36.024Z,2.50
2022-09-04T21:44:59.353Z,2.50
2022-09-04T21:48:24.494Z,2.60
2022-09-04T21:51:39.626Z,2.10
2022-09-04T21:57:05.524Z,2.10
2022-09-04T22:02:40.986Z,2.22
2022-09-04T22:02:44.810Z,2.70
2022-09-04T22:05:43.526Z,2.30
2022-09-04T22:13:29.711Z,2.35
2022-09-04T22:13:41.544Z,2.20
2022-09-04T22:16:56.783Z,2.28
2022-09-04T22:20:19.963Z,2.42
2022-09-04T22:23:45.955Z,2.20
2022-09-04T22:27:18.480Z,2.65
2022-09-04T22:30:23.883Z,2.60
2022-09-04T22:34:17.504Z,2.23
2022-09-04T22:37:57.740Z,2.30
2022-09-04T22:41:14.803Z,2.25
2022-09-04T22:44:35.280Z,2.47
2022-09-04T22:48:01.774Z,2.10
2022-09-04T22:51:31.031Z,2.35
2022-09-04T22:54:56.019Z,2.10
2022-09-04T22:58:50.018Z,2.70
2022-09-04T23:03:04.154Z,2.00
2022-09-04T23:07:56.126Z,1.83
2022-09-04T23:13:51.502Z,2.30
2022-09-04T23:13:58.088Z,2.20
2022-09-04T23:17:54.949Z,2.38
2022-09-04T23:26:35.912Z,2.05
2022-09-04T23:26:46.606Z,2.15
2022-09-04T23:29:46.332Z,2.15
2022-09-04T23:33:10.143Z,2.10
2022-09-04T23:36:28.389Z,1.98
2022-09-04T23:40:01.912Z,2.00
2022-09-04T23:43:22.135Z,2.17
2022-09-04T23:46:44.086Z,2.15
2022-09-04T23:49:45.944Z,2.58
2022-09-04T23:53:12.173Z,2.22
2022-09-04T23:56:29.817Z,2.23
2022-09-04T23:59:40.252Z,2.13
